KMWO/MWO METAR and TAF weather

Enter ICAO airport designator
Station Type Date Time Source
KMWO METAR 2021/05/15 01:15 UTC NOAA

KMWO 150115Z AUTO 00000KT 10SM CLR 12/07 A3027 RMK AO2 T01240066


Station Type Date Time Source
KMWO Decoded METAR 2021/05/15 01:15 UTC NOAA

Station name not available
May 14, 2021 - 09:15 PM EDT / 2021.05.15 0115 UTC
Wind: Calm:0
Visibility: 10 mile(s):0
Sky conditions: clear
Temperature: 54.3 F (12.4 C)
Dew Point: 43.9 F (6.6 C)
Relative Humidity: 67%
Pressure (altimeter): 30.27 in. Hg (1025 hPa)
ob: KMWO 150115Z AUTO 00000KT 10SM CLR 12/07 A3027 RMK AO2 T01240066
cycle: 1

Station Type Date Time Source
KMWO TAF UTC NOAA

Error!

Example: see airport list